sensor_id;sensor_type;location;lat;lon;timestamp;P1;durP1;ratioP1;P2;durP2;ratioP2
51985;SDS011;38002;53.296;6.600;2023-11-21T00:02:58;17.53;;;4.23;;
51985;SDS011;38002;53.296;6.600;2023-11-21T00:07:58;21.38;;;4.80;;
51985;SDS011;38002;53.296;6.600;2023-11-21T00:12:59;16.25;;;4.20;;
51985;SDS011;38002;53.296;6.600;2023-11-21T00:17:59;15.52;;;4.22;;
51985;SDS011;38002;53.296;6.600;2023-11-21T00:23:00;21.02;;;4.28;;
51985;SDS011;38002;53.296;6.600;2023-11-21T00:28:02;18.45;;;4.70;;
51985;SDS011;38002;53.296;6.600;2023-11-21T00:33:02;21.42;;;4.38;;
51985;SDS011;38002;53.296;6.600;2023-11-21T00:38:04;10.32;;;4.30;;
51985;SDS011;38002;53.296;6.600;2023-11-21T00:43:04;22.37;;;4.67;;
51985;SDS011;38002;53.296;6.600;2023-11-21T00:48:05;15.80;;;4.70;;
51985;SDS011;38002;53.296;6.600;2023-11-21T00:53:06;17.00;;;4.00;;
51985;SDS011;38002;53.296;6.600;2023-11-21T00:58:07;10.73;;;4.07;;
51985;SDS011;38002;53.296;6.600;2023-11-21T01:03:07;23.37;;;5.17;;
51985;SDS011;38002;53.296;6.600;2023-11-21T01:08:08;13.63;;;4.38;;
51985;SDS011;38002;53.296;6.600;2023-11-21T01:13:08;14.27;;;4.57;;
51985;SDS011;38002;53.296;6.600;2023-11-21T01:23:11;10.40;;;4.25;;
51985;SDS011;38002;53.296;6.600;2023-11-21T01:28:11;16.53;;;4.33;;
51985;SDS011;38002;53.296;6.600;2023-11-21T01:33:12;10.73;;;4.47;;
51985;SDS011;38002;53.296;6.600;2023-11-21T01:38:13;9.98;;;4.20;;
51985;SDS011;38002;53.296;6.600;2023-11-21T01:43:15;12.55;;;5.35;;
51985;SDS011;38002;53.296;6.600;2023-11-21T01:48:15;11.43;;;4.75;;
51985;SDS011;38002;53.296;6.600;2023-11-21T01:53:16;19.10;;;5.30;;
51985;SDS011;38002;53.296;6.600;2023-11-21T01:58:17;14.37;;;5.00;;
51985;SDS011;38002;53.296;6.600;2023-11-21T02:03:17;17.13;;;5.50;;
51985;SDS011;38002;53.296;6.600;2023-11-21T02:08:18;10.63;;;5.25;;
51985;SDS011;38002;53.296;6.600;2023-11-21T02:13:19;18.75;;;4.97;;
51985;SDS011;38002;53.296;6.600;2023-11-21T02:18:19;20.93;;;7.23;;
51985;SDS011;38002;53.296;6.600;2023-11-21T02:23:22;11.68;;;5.45;;
51985;SDS011;38002;53.296;6.600;2023-11-21T02:28:23;14.50;;;5.40;;
51985;SDS011;38002;53.296;6.600;2023-11-21T02:33:25;9.00;;;5.28;;
51985;SDS011;38002;53.296;6.600;2023-11-21T02:38:26;18.60;;;6.28;;
51985;SDS011;38002;53.296;6.600;2023-11-21T02:43:26;12.98;;;6.70;;
51985;SDS011;38002;53.296;6.600;2023-11-21T02:48:27;16.08;;;6.35;;
51985;SDS011;38002;53.296;6.600;2023-11-21T02:53:27;17.27;;;6.47;;
51985;SDS011;38002;53.296;6.600;2023-11-21T02:58:28;18.73;;;6.72;;
51985;SDS011;38002;53.296;6.600;2023-11-21T03:03:28;13.73;;;6.50;;
51985;SDS011;38002;53.296;6.600;2023-11-21T03:08:29;16.40;;;7.27;;
51985;SDS011;38002;53.296;6.600;2023-11-21T03:13:29;21.58;;;7.00;;
51985;SDS011;38002;53.296;6.600;2023-11-21T03:18:30;17.83;;;6.20;;
51985;SDS011;38002;53.296;6.600;2023-11-21T03:23:31;13.65;;;5.55;;
51985;SDS011;38002;53.296;6.600;2023-11-21T03:28:32;17.67;;;6.13;;
51985;SDS011;38002;53.296;6.600;2023-11-21T03:33:32;27.52;;;7.05;;
51985;SDS011;38002;53.296;6.600;2023-11-21T03:38:33;16.55;;;5.88;;
51985;SDS011;38002;53.296;6.600;2023-11-21T03:43:33;18.00;;;6.13;;
51985;SDS011;38002;53.296;6.600;2023-11-21T03:48:34;19.50;;;6.63;;
51985;SDS011;38002;53.296;6.600;2023-11-21T03:53:34;15.80;;;6.63;;
51985;SDS011;38002;53.296;6.600;2023-11-21T03:58:35;21.73;;;6.50;;
51985;SDS011;38002;53.296;6.600;2023-11-21T04:03:35;15.82;;;6.10;;
51985;SDS011;38002;53.296;6.600;2023-11-21T04:08:36;22.30;;;6.20;;
51985;SDS011;38002;53.296;6.600;2023-11-21T04:13:36;25.67;;;7.30;;
51985;SDS011;38002;53.296;6.600;2023-11-21T04:18:37;19.10;;;6.55;;
51985;SDS011;38002;53.296;6.600;2023-11-21T04:23:38;19.60;;;6.43;;
51985;SDS011;38002;53.296;6.600;2023-11-21T04:28:40;15.57;;;6.10;;
51985;SDS011;38002;53.296;6.600;2023-11-21T04:33:40;22.83;;;7.72;;
51985;SDS011;38002;53.296;6.600;2023-11-21T04:38:40;16.03;;;7.53;;
51985;SDS011;38002;53.296;6.600;2023-11-21T04:43:41;14.17;;;8.23;;
51985;SDS011;38002;53.296;6.600;2023-11-21T04:48:42;21.47;;;8.03;;
51985;SDS011;38002;53.296;6.600;2023-11-21T04:53:43;19.50;;;6.93;;
51985;SDS011;38002;53.296;6.600;2023-11-21T04:58:43;21.50;;;8.33;;
51985;SDS011;38002;53.296;6.600;2023-11-21T05:03:44;22.23;;;8.00;;
51985;SDS011;38002;53.296;6.600;2023-11-21T05:08:44;29.17;;;8.40;;
51985;SDS011;38002;53.296;6.600;2023-11-21T05:13:45;23.03;;;8.80;;
51985;SDS011;38002;53.296;6.600;2023-11-21T05:18:45;17.33;;;7.30;;
51985;SDS011;38002;53.296;6.600;2023-11-21T05:23:46;19.47;;;8.27;;
51985;SDS011;38002;53.296;6.600;2023-11-21T05:28:46;24.53;;;8.07;;
51985;SDS011;38002;53.296;6.600;2023-11-21T05:33:47;25.02;;;8.93;;
51985;SDS011;38002;53.296;6.600;2023-11-21T05:38:47;24.33;;;9.23;;
51985;SDS011;38002;53.296;6.600;2023-11-21T05:43:47;26.73;;;11.60;;
51985;SDS011;38002;53.296;6.600;2023-11-21T05:48:48;31.67;;;11.67;;
51985;SDS011;38002;53.296;6.600;2023-11-21T05:53:49;27.60;;;10.53;;
51985;SDS011;38002;53.296;6.600;2023-11-21T05:58:49;30.95;;;13.38;;
51985;SDS011;38002;53.296;6.600;2023-11-21T06:03:51;31.48;;;13.18;;
51985;SDS011;38002;53.296;6.600;2023-11-21T06:08:51;24.77;;;11.80;;
51985;SDS011;38002;53.296;6.600;2023-11-21T06:13:52;24.37;;;10.30;;
51985;SDS011;38002;53.296;6.600;2023-11-21T06:18:53;25.17;;;9.97;;
51985;SDS011;38002;53.296;6.600;2023-11-21T06:23:53;21.07;;;10.43;;
51985;SDS011;38002;53.296;6.600;2023-11-21T06:28:54;26.10;;;11.70;;
51985;SDS011;38002;53.296;6.600;2023-11-21T06:33:55;28.03;;;12.47;;
51985;SDS011;38002;53.296;6.600;2023-11-21T06:38:55;30.83;;;13.63;;
51985;SDS011;38002;53.296;6.600;2023-11-21T06:43:55;24.45;;;12.35;;
51985;SDS011;38002;53.296;6.600;2023-11-21T06:48:58;22.33;;;10.73;;
51985;SDS011;38002;53.296;6.600;2023-11-21T06:53:58;21.73;;;11.25;;
51985;SDS011;38002;53.296;6.600;2023-11-21T06:58:59;29.80;;;13.63;;
51985;SDS011;38002;53.296;6.600;2023-11-21T07:03:59;26.23;;;13.13;;
51985;SDS011;38002;53.296;6.600;2023-11-21T07:09:00;23.10;;;12.88;;
51985;SDS011;38002;53.296;6.600;2023-11-21T07:14:01;25.03;;;12.53;;
51985;SDS011;38002;53.296;6.600;2023-11-21T07:19:07;24.13;;;11.98;;
51985;SDS011;38002;53.296;6.600;2023-11-21T07:24:08;25.65;;;12.45;;
51985;SDS011;38002;53.296;6.600;2023-11-21T07:29:08;22.85;;;13.93;;
51985;SDS011;38002;53.296;6.600;2023-11-21T07:34:09;24.95;;;13.70;;
51985;SDS011;38002;53.296;6.600;2023-11-21T07:39:09;26.53;;;14.67;;
51985;SDS011;38002;53.296;6.600;2023-11-21T07:44:10;27.92;;;14.10;;
51985;SDS011;38002;53.296;6.600;2023-11-21T07:49:11;30.73;;;13.70;;
51985;SDS011;38002;53.296;6.600;2023-11-21T07:54:15;25.02;;;12.85;;
51985;SDS011;38002;53.296;6.600;2023-11-21T07:59:16;21.90;;;12.93;;
51985;SDS011;38002;53.296;6.600;2023-11-21T08:04:18;32.35;;;14.10;;
51985;SDS011;38002;53.296;6.600;2023-11-21T08:09:18;25.33;;;13.68;;
51985;SDS011;38002;53.296;6.600;2023-11-21T08:14:19;26.48;;;14.40;;
51985;SDS011;38002;53.296;6.600;2023-11-21T08:19:20;23.45;;;12.50;;
51985;SDS011;38002;53.296;6.600;2023-11-21T08:24:21;21.55;;;13.68;;
51985;SDS011;38002;53.296;6.600;2023-11-21T08:29:22;20.93;;;12.00;;
51985;SDS011;38002;53.296;6.600;2023-11-21T08:34:23;19.10;;;11.15;;
51985;SDS011;38002;53.296;6.600;2023-11-21T08:39:24;15.10;;;11.00;;
51985;SDS011;38002;53.296;6.600;2023-11-21T08:44:24;16.33;;;10.13;;
51985;SDS011;38002;53.296;6.600;2023-11-21T08:49:25;17.93;;;9.57;;
51985;SDS011;38002;53.296;6.600;2023-11-21T08:54:27;15.60;;;11.02;;
51985;SDS011;38002;53.296;6.600;2023-11-21T08:59:28;12.13;;;9.02;;
51985;SDS011;38002;53.296;6.600;2023-11-21T09:04:28;14.55;;;9.48;;
51985;SDS011;38002;53.296;6.600;2023-11-21T09:09:29;20.90;;;9.77;;
51985;SDS011;38002;53.296;6.600;2023-11-21T09:14:30;14.37;;;9.13;;
51985;SDS011;38002;53.296;6.600;2023-11-21T09:19:30;17.50;;;8.17;;
51985;SDS011;38002;53.296;6.600;2023-11-21T09:24:34;12.38;;;7.75;;
51985;SDS011;38002;53.296;6.600;2023-11-21T09:29:34;11.40;;;7.95;;
51985;SDS011;38002;53.296;6.600;2023-11-21T09:34:35;14.15;;;8.20;;
51985;SDS011;38002;53.296;6.600;2023-11-21T09:39:38;12.48;;;8.02;;
51985;SDS011;38002;53.296;6.600;2023-11-21T09:44:48;10.68;;;7.97;;
51985;SDS011;38002;53.296;6.600;2023-11-21T09:49:58;17.48;;;7.90;;
51985;SDS011;38002;53.296;6.600;2023-11-21T09:55:01;10.73;;;7.18;;
51985;SDS011;38002;53.296;6.600;2023-11-21T10:00:02;9.20;;;7.05;;
51985;SDS011;38002;53.296;6.600;2023-11-21T10:05:05;11.18;;;7.80;;
51985;SDS011;38002;53.296;6.600;2023-11-21T10:10:07;12.30;;;8.60;;
51985;SDS011;38002;53.296;6.600;2023-11-21T10:20:11;11.63;;;6.85;;
51985;SDS011;38002;53.296;6.600;2023-11-21T10:25:13;9.52;;;6.32;;
51985;SDS011;38002;53.296;6.600;2023-11-21T10:30:18;9.52;;;6.43;;
51985;SDS011;38002;53.296;6.600;2023-11-21T10:35:18;10.00;;;6.10;;
51985;SDS011;38002;53.296;6.600;2023-11-21T10:40:19;10.88;;;6.60;;
51985;SDS011;38002;53.296;6.600;2023-11-21T10:45:20;8.83;;;6.27;;
51985;SDS011;38002;53.296;6.600;2023-11-21T10:50:23;7.53;;;5.93;;
51985;SDS011;38002;53.296;6.600;2023-11-21T10:55:24;9.63;;;6.15;;
51985;SDS011;38002;53.296;6.600;2023-11-21T11:00:26;11.07;;;6.90;;
51985;SDS011;38002;53.296;6.600;2023-11-21T11:05:27;7.05;;;5.68;;
51985;SDS011;38002;53.296;6.600;2023-11-21T11:10:36;7.72;;;5.72;;
51985;SDS011;38002;53.296;6.600;2023-11-21T11:15:36;6.03;;;5.13;;
51985;SDS011;38002;53.296;6.600;2023-11-21T11:20:37;9.67;;;5.97;;
51985;SDS011;38002;53.296;6.600;2023-11-21T11:25:59;5.70;;;5.00;;
51985;SDS011;38002;53.296;6.600;2023-11-21T11:31:35;7.60;;;5.72;;
51985;SDS011;38002;53.296;6.600;2023-11-21T11:36:51;5.93;;;4.82;;
51985;SDS011;38002;53.296;6.600;2023-11-21T11:42:01;8.70;;;5.10;;
51985;SDS011;38002;53.296;6.600;2023-11-21T11:47:04;7.47;;;6.07;;
51985;SDS011;38002;53.296;6.600;2023-11-21T11:57:33;8.82;;;5.78;;
51985;SDS011;38002;53.296;6.600;2023-11-21T12:02:35;7.80;;;5.35;;
51985;SDS011;38002;53.296;6.600;2023-11-21T12:13:06;12.80;;;6.28;;
51985;SDS011;38002;53.296;6.600;2023-11-21T12:18:08;9.32;;;6.20;;
51985;SDS011;38002;53.296;6.600;2023-11-21T12:23:09;11.07;;;6.07;;
51985;SDS011;38002;53.296;6.600;2023-11-21T12:33:12;8.88;;;5.88;;
51985;SDS011;38002;53.296;6.600;2023-11-21T12:38:17;5.75;;;5.05;;
51985;SDS011;38002;53.296;6.600;2023-11-21T12:43:18;7.03;;;5.87;;
51985;SDS011;38002;53.296;6.600;2023-11-21T12:48:20;12.20;;;6.63;;
51985;SDS011;38002;53.296;6.600;2023-11-21T12:53:24;7.90;;;6.05;;
51985;SDS011;38002;53.296;6.600;2023-11-21T12:58:26;6.65;;;4.75;;
51985;SDS011;38002;53.296;6.600;2023-11-21T13:03:26;5.78;;;4.43;;
51985;SDS011;38002;53.296;6.600;2023-11-21T13:08:27;7.32;;;4.95;;
51985;SDS011;38002;53.296;6.600;2023-11-21T13:13:29;8.13;;;4.25;;
51985;SDS011;38002;53.296;6.600;2023-11-21T13:18:30;6.40;;;3.92;;
51985;SDS011;38002;53.296;6.600;2023-11-21T13:23:34;6.80;;;4.43;;
51985;SDS011;38002;53.296;6.600;2023-11-21T13:28:36;6.38;;;4.40;;
51985;SDS011;38002;53.296;6.600;2023-11-21T13:33:37;7.82;;;4.43;;
51985;SDS011;38002;53.296;6.600;2023-11-21T13:38:38;6.30;;;3.83;;
51985;SDS011;38002;53.296;6.600;2023-11-21T13:43:42;4.90;;;3.30;;
51985;SDS011;38002;53.296;6.600;2023-11-21T13:48:48;5.53;;;3.30;;
51985;SDS011;38002;53.296;6.600;2023-11-21T13:53:56;6.13;;;3.78;;
51985;SDS011;38002;53.296;6.600;2023-11-21T13:58:56;7.47;;;3.80;;
51985;SDS011;38002;53.296;6.600;2023-11-21T14:03:59;6.03;;;3.35;;
51985;SDS011;38002;53.296;6.600;2023-11-21T14:09:16;3.83;;;2.80;;
51985;SDS011;38002;53.296;6.600;2023-11-21T14:14:33;5.85;;;2.38;;
51985;SDS011;38002;53.296;6.600;2023-11-21T14:19:34;4.25;;;2.70;;
51985;SDS011;38002;53.296;6.600;2023-11-21T14:24:40;2.92;;;2.60;;
51985;SDS011;38002;53.296;6.600;2023-11-21T14:29:47;6.05;;;2.45;;
51985;SDS011;38002;53.296;6.600;2023-11-21T14:34:48;3.80;;;2.65;;
51985;SDS011;38002;53.296;6.600;2023-11-21T14:39:50;10.05;;;2.88;;
51985;SDS011;38002;53.296;6.600;2023-11-21T14:44:50;6.07;;;3.77;;
51985;SDS011;38002;53.296;6.600;2023-11-21T14:49:52;7.65;;;3.80;;
51985;SDS011;38002;53.296;6.600;2023-11-21T14:54:52;7.10;;;3.40;;
51985;SDS011;38002;53.296;6.600;2023-11-21T15:00:13;6.95;;;3.05;;
51985;SDS011;38002;53.296;6.600;2023-11-21T15:05:32;3.15;;;2.70;;
51985;SDS011;38002;53.296;6.600;2023-11-21T15:10:35;6.28;;;3.25;;
51985;SDS011;38002;53.296;6.600;2023-11-21T15:15:46;9.18;;;3.78;;
51985;SDS011;38002;53.296;6.600;2023-11-21T15:20:47;5.45;;;3.15;;
51985;SDS011;38002;53.296;6.600;2023-11-21T15:25:47;3.63;;;3.33;;
51985;SDS011;38002;53.296;6.600;2023-11-21T15:30:47;4.38;;;3.92;;
51985;SDS011;38002;53.296;6.600;2023-11-21T15:35:51;9.35;;;4.07;;
51985;SDS011;38002;53.296;6.600;2023-11-21T15:40:51;3.70;;;3.35;;
51985;SDS011;38002;53.296;6.600;2023-11-21T15:45:52;6.60;;;3.67;;
51985;SDS011;38002;53.296;6.600;2023-11-21T15:50:52;4.60;;;4.20;;
51985;SDS011;38002;53.296;6.600;2023-11-21T15:55:57;6.10;;;3.92;;
51985;SDS011;38002;53.296;6.600;2023-11-21T16:00:58;7.20;;;3.97;;
51985;SDS011;38002;53.296;6.600;2023-11-21T16:05:58;4.68;;;3.45;;
51985;SDS011;38002;53.296;6.600;2023-11-21T16:10:59;5.45;;;4.15;;
51985;SDS011;38002;53.296;6.600;2023-11-21T16:16:00;7.80;;;3.90;;
51985;SDS011;38002;53.296;6.600;2023-11-21T16:21:01;7.80;;;4.13;;
51985;SDS011;38002;53.296;6.600;2023-11-21T16:26:02;8.33;;;5.30;;
51985;SDS011;38002;53.296;6.600;2023-11-21T16:31:05;8.02;;;4.78;;
51985;SDS011;38002;53.296;6.600;2023-11-21T16:36:05;5.75;;;4.63;;
51985;SDS011;38002;53.296;6.600;2023-11-21T16:41:06;10.10;;;5.13;;
51985;SDS011;38002;53.296;6.600;2023-11-21T16:46:09;7.88;;;5.22;;
51985;SDS011;38002;53.296;6.600;2023-11-21T16:51:16;10.13;;;5.45;;
51985;SDS011;38002;53.296;6.600;2023-11-21T16:56:17;10.68;;;4.85;;
51985;SDS011;38002;53.296;6.600;2023-11-21T17:01:18;8.65;;;5.72;;
51985;SDS011;38002;53.296;6.600;2023-11-21T17:06:19;7.10;;;6.23;;
51985;SDS011;38002;53.296;6.600;2023-11-21T17:11:20;9.85;;;5.63;;
51985;SDS011;38002;53.296;6.600;2023-11-21T17:16:20;6.57;;;5.68;;
51985;SDS011;38002;53.296;6.600;2023-11-21T17:21:21;12.27;;;6.75;;
51985;SDS011;38002;53.296;6.600;2023-11-21T17:26:22;8.40;;;6.85;;
51985;SDS011;38002;53.296;6.600;2023-11-21T17:31:22;7.38;;;5.95;;
51985;SDS011;38002;53.296;6.600;2023-11-21T17:36:23;6.97;;;5.68;;
51985;SDS011;38002;53.296;6.600;2023-11-21T17:41:24;13.32;;;6.82;;
51985;SDS011;38002;53.296;6.600;2023-11-21T17:46:25;12.67;;;7.57;;
51985;SDS011;38002;53.296;6.600;2023-11-21T17:51:25;8.25;;;6.72;;
51985;SDS011;38002;53.296;6.600;2023-11-21T17:56:26;7.10;;;5.93;;
51985;SDS011;38002;53.296;6.600;2023-11-21T18:01:26;8.73;;;7.03;;
51985;SDS011;38002;53.296;6.600;2023-11-21T18:06:33;11.55;;;7.30;;
51985;SDS011;38002;53.296;6.600;2023-11-21T18:11:34;10.23;;;7.60;;
51985;SDS011;38002;53.296;6.600;2023-11-21T18:16:34;10.80;;;7.45;;
51985;SDS011;38002;53.296;6.600;2023-11-21T18:21:37;10.98;;;7.53;;
51985;SDS011;38002;53.296;6.600;2023-11-21T18:26:41;11.80;;;8.90;;
51985;SDS011;38002;53.296;6.600;2023-11-21T18:31:42;13.00;;;7.60;;
51985;SDS011;38002;53.296;6.600;2023-11-21T18:36:43;10.65;;;7.50;;
51985;SDS011;38002;53.296;6.600;2023-11-21T18:41:45;11.80;;;7.55;;
51985;SDS011;38002;53.296;6.600;2023-11-21T18:46:45;13.20;;;8.30;;
51985;SDS011;38002;53.296;6.600;2023-11-21T18:51:46;9.93;;;7.03;;
51985;SDS011;38002;53.296;6.600;2023-11-21T18:56:48;12.45;;;8.02;;
51985;SDS011;38002;53.296;6.600;2023-11-21T19:01:48;12.63;;;8.05;;
51985;SDS011;38002;53.296;6.600;2023-11-21T19:06:49;10.18;;;7.85;;
51985;SDS011;38002;53.296;6.600;2023-11-21T19:11:50;10.90;;;8.07;;
51985;SDS011;38002;53.296;6.600;2023-11-21T19:16:50;9.40;;;6.93;;
51985;SDS011;38002;53.296;6.600;2023-11-21T19:21:51;10.30;;;7.20;;
51985;SDS011;38002;53.296;6.600;2023-11-21T19:26:51;11.48;;;7.95;;
51985;SDS011;38002;53.296;6.600;2023-11-21T19:31:52;9.88;;;6.95;;
51985;SDS011;38002;53.296;6.600;2023-11-21T19:36:54;9.18;;;6.90;;
51985;SDS011;38002;53.296;6.600;2023-11-21T19:41:55;9.57;;;7.00;;
51985;SDS011;38002;53.296;6.600;2023-11-21T19:46:55;7.93;;;6.55;;
51985;SDS011;38002;53.296;6.600;2023-11-21T19:51:56;7.80;;;5.88;;
51985;SDS011;38002;53.296;6.600;2023-11-21T19:56:56;7.97;;;5.90;;
51985;SDS011;38002;53.296;6.600;2023-11-21T20:01:56;9.48;;;5.72;;
51985;SDS011;38002;53.296;6.600;2023-11-21T20:06:58;9.10;;;5.90;;
51985;SDS011;38002;53.296;6.600;2023-11-21T20:11:59;6.63;;;4.40;;
51985;SDS011;38002;53.296;6.600;2023-11-21T20:16:59;8.03;;;5.10;;
51985;SDS011;38002;53.296;6.600;2023-11-21T20:22:01;6.17;;;4.67;;
51985;SDS011;38002;53.296;6.600;2023-11-21T20:27:01;5.60;;;4.50;;
51985;SDS011;38002;53.296;6.600;2023-11-21T20:32:05;5.47;;;4.75;;
51985;SDS011;38002;53.296;6.600;2023-11-21T20:37:06;9.30;;;5.80;;
51985;SDS011;38002;53.296;6.600;2023-11-21T20:42:06;6.00;;;5.40;;
51985;SDS011;38002;53.296;6.600;2023-11-21T20:47:09;6.68;;;4.68;;
51985;SDS011;38002;53.296;6.600;2023-11-21T20:52:09;6.72;;;4.93;;
51985;SDS011;38002;53.296;6.600;2023-11-21T20:57:10;4.25;;;3.90;;
51985;SDS011;38002;53.296;6.600;2023-11-21T21:02:11;7.50;;;4.67;;
51985;SDS011;38002;53.296;6.600;2023-11-21T21:07:12;7.15;;;4.88;;
51985;SDS011;38002;53.296;6.600;2023-11-21T21:12:13;7.70;;;5.13;;
51985;SDS011;38002;53.296;6.600;2023-11-21T21:17:14;5.38;;;4.85;;
51985;SDS011;38002;53.296;6.600;2023-11-21T21:22:14;5.93;;;4.18;;
51985;SDS011;38002;53.296;6.600;2023-11-21T21:27:15;5.80;;;5.20;;
51985;SDS011;38002;53.296;6.600;2023-11-21T21:32:15;5.40;;;4.53;;
51985;SDS011;38002;53.296;6.600;2023-11-21T21:37:16;6.47;;;4.53;;
51985;SDS011;38002;53.296;6.600;2023-11-21T21:42:16;7.55;;;4.78;;
51985;SDS011;38002;53.296;6.600;2023-11-21T21:47:17;4.97;;;4.47;;
51985;SDS011;38002;53.296;6.600;2023-11-21T21:52:17;8.95;;;5.80;;
51985;SDS011;38002;53.296;6.600;2023-11-21T21:57:17;7.85;;;5.10;;
51985;SDS011;38002;53.296;6.600;2023-11-21T22:02:18;10.05;;;6.05;;
51985;SDS011;38002;53.296;6.600;2023-11-21T22:07:18;10.55;;;5.45;;
51985;SDS011;38002;53.296;6.600;2023-11-21T22:12:19;9.18;;;5.75;;
51985;SDS011;38002;53.296;6.600;2023-11-21T22:17:20;10.23;;;5.57;;
51985;SDS011;38002;53.296;6.600;2023-11-21T22:22:20;8.52;;;5.78;;
51985;SDS011;38002;53.296;6.600;2023-11-21T22:27:21;5.53;;;4.43;;
51985;SDS011;38002;53.296;6.600;2023-11-21T22:32:21;4.40;;;4.00;;
51985;SDS011;38002;53.296;6.600;2023-11-21T22:37:22;7.60;;;5.05;;
51985;SDS011;38002;53.296;6.600;2023-11-21T22:42:22;7.47;;;4.78;;
51985;SDS011;38002;53.296;6.600;2023-11-21T22:47:23;7.33;;;5.30;;
51985;SDS011;38002;53.296;6.600;2023-11-21T22:52:23;6.80;;;5.07;;
51985;SDS011;38002;53.296;6.600;2023-11-21T22:57:24;7.60;;;5.78;;
51985;SDS011;38002;53.296;6.600;2023-11-21T23:02:25;7.47;;;5.88;;
51985;SDS011;38002;53.296;6.600;2023-11-21T23:07:25;10.68;;;6.38;;
51985;SDS011;38002;53.296;6.600;2023-11-21T23:12:25;13.25;;;6.80;;
51985;SDS011;38002;53.296;6.600;2023-11-21T23:17:27;7.80;;;5.90;;
51985;SDS011;38002;53.296;6.600;2023-11-21T23:22:28;7.22;;;5.45;;
51985;SDS011;38002;53.296;6.600;2023-11-21T23:27:28;6.43;;;5.32;;
51985;SDS011;38002;53.296;6.600;2023-11-21T23:32:29;6.43;;;5.22;;
51985;SDS011;38002;53.296;6.600;2023-11-21T23:37:29;8.57;;;5.78;;
51985;SDS011;38002;53.296;6.600;2023-11-21T23:42:30;7.80;;;6.25;;
51985;SDS011;38002;53.296;6.600;2023-11-21T23:47:30;7.40;;;5.18;;
51985;SDS011;38002;53.296;6.600;2023-11-21T23:52:30;7.38;;;5.32;;
51985;SDS011;38002;53.296;6.600;2023-11-21T23:57:31;10.57;;;6.10;;
